Venice, Italy
Current Conditions -  °F | °C
As of 4:20 AM on Saturday 20 Dec 2014 (Local Time) from LIPZ Reporting Station
Haze Haze  
Wind Chill: 46°   Ceiling: 2500
Heat Index: 46°   Visibility: 1.5mi
Dew Point: 43°   Wind: 2mph
Humidity: 87%   Direction: NA
Pressure: 30.15"   Gusts: NA
Location:  45.43°N, 12.34°E
Report Text: LIPZ 200320Z VRB02KT 2500 BR BKN025 08/06 Q1021
Loading
Personal Weather Stations






























Interactive Weather Map New forecast layout! Learn more

10-Day Weather Forecast

Advertisements
Track Severe Weather on mobile